Time;durP1;ratioP1;P1;durP2;ratioP2;P2;SDS_P1;SDS_P2;PMS_P1;PMS_P2;Temp;Humidity;BMP_temperature;BMP_pressure;BME280_temperature;BME280_humidity;BME280_pressure;Samples;Min_cycle;Max_cycle;Signal;HPM_P1;HPM_P2
2022/03/03 00:00:15;;;;;;;11.23;5.05;;;;;;;3.65;54.33;100653.25;5033562;28;20149;-81
2022/03/03 00:02:41;;;;;;;12.75;4.90;;;;;;;3.62;53.70;100658.06;5034122;28;20041;-81
2022/03/03 00:05:07;;;;;;;;;;;;;;;3.56;54.03;100656.03;5036227;28;20033;-81
2022/03/03 00:07:33;;;;;;;14.45;5.50;;;;;;;3.61;54.04;100659.88;5035255;28;19913;-81
2022/03/03 00:09:58;;;;;;;11.10;4.85;;;;;;;3.55;53.93;100654.34;5035459;28;20036;-81
2022/03/03 00:12:24;;;;;;;9.80;4.13;;;;;;;3.55;54.07;100655.19;5035262;28;20029;-81
2022/03/03 00:14:50;;;;;;;12.48;4.53;;;;;;;3.47;54.36;100649.78;5034021;28;20021;-82
2022/03/03 00:17:15;;;;;;;12.30;4.93;;;;;;;3.39;54.35;100650.56;5034949;28;20034;-82
2022/03/03 00:19:44;;;;;;;16.17;5.00;;;;;;;3.39;55.21;100649.72;5034117;28;20037;-82
2022/03/03 00:22:12;;;;;;;13.18;5.30;;;;;;;3.40;55.36;100654.06;5035593;28;20033;-82
2022/03/03 00:24:38;;;;;;;10.18;4.55;;;;;;;3.59;54.99;100651.22;5038772;28;20089;-82
2022/03/03 00:27:05;;;;;;;11.13;5.30;;;;;;;3.49;55.13;100640.66;5038171;28;20071;-81
2022/03/03 00:29:31;;;;;;;13.05;4.40;;;;;;;3.36;54.85;100644.69;5038441;28;20033;-81
2022/03/03 00:31:57;;;;;;;12.73;4.80;;;;;;;3.51;54.99;100647.66;5037230;28;20030;-82
2022/03/03 00:34:22;;;;;;;11.20;4.70;;;;;;;3.45;54.79;100641.09;5038343;28;20075;-81
2022/03/03 00:36:47;;;;;;;13.50;5.18;;;;;;;3.38;54.49;100638.25;5039739;28;20029;-81
2022/03/03 00:39:13;;;;;;;12.23;4.90;;;;;;;3.32;54.95;100633.50;5041234;28;20086;-81
2022/03/03 00:41:38;;;;;;;11.90;4.30;;;;;;;3.42;54.35;100638.75;5041435;28;20033;-82
2022/03/03 00:44:06;;;;;;;11.10;4.50;;;;;;;3.39;54.55;100642.56;5041311;28;20100;-81
2022/03/03 00:46:34;;;;;;;9.88;4.15;;;;;;;3.46;54.75;100640.13;5040064;28;20264;-82
2022/03/03 00:49:00;;;;;;;10.38;4.25;;;;;;;3.32;55.25;100648.66;5039886;28;20026;-81
2022/03/03 00:51:25;;;;;;;11.90;5.00;;;;;;;3.35;55.49;100649.19;5037408;28;20025;-81
2022/03/03 00:53:51;;;;;;;13.43;5.40;;;;;;;3.26;55.95;100655.41;5038323;28;20053;-82
2022/03/03 00:56:18;;;;;;;12.05;5.40;;;;;;;3.17;56.43;100653.69;5038210;28;20076;-81
2022/03/03 00:58:43;;;;;;;12.43;5.10;;;;;;;3.32;56.62;100653.97;5037488;28;20038;-82
2022/03/03 01:01:09;;;;;;;16.58;5.90;;;;;;;3.25;56.17;100645.75;5035767;28;20443;-82
2022/03/03 01:03:34;;;;;;;13.30;5.00;;;;;;;3.17;56.27;100650.19;5037524;28;20558;-81
2022/03/03 01:05:59;;;;;;;15.10;5.73;;;;;;;3.03;56.58;100644.41;5037843;28;20039;-81
2022/03/03 01:08:25;;;;;;;13.27;5.67;;;;;;;2.85;57.61;100645.38;5036480;28;20021;-81
2022/03/03 01:10:52;;;;;;;13.10;5.75;;;;;;;2.78;57.81;100653.09;5038848;28;20116;-82
2022/03/03 01:13:18;;;;;;;11.05;4.57;;;;;;;2.82;57.78;100653.63;5036960;28;20136;-81
2022/03/03 01:15:44;;;;;;;12.45;4.70;;;;;;;2.52;59.41;100652.09;5036691;28;20065;-81
2022/03/03 01:18:10;;;;;;;13.48;5.68;;;;;;;2.25;60.21;100647.63;5037438;28;20037;-82
2022/03/03 01:20:35;;;;;;;14.50;5.65;;;;;;;2.23;60.46;100645.09;5037884;28;20369;-83
2022/03/03 01:23:00;;;;;;;12.90;5.20;;;;;;;2.08;61.62;100651.88;5038279;28;20033;-81
2022/03/03 01:25:26;;;;;;;12.27;4.23;;;;;;;1.85;62.52;100651.38;5037150;28;20037;-81
2022/03/03 01:27:52;;;;;;;13.27;5.70;;;;;;;1.85;62.24;100646.06;5037469;28;20284;-81
2022/03/03 01:30:17;;;;;;;12.43;5.15;;;;;;;1.94;62.13;100650.53;5036266;28;20041;-82
2022/03/03 01:32:42;;;;;;;11.68;5.28;;;;;;;1.95;61.76;100641.56;5037364;28;20059;-81
2022/03/03 01:35:08;;;;;;;14.17;5.50;;;;;;;1.94;61.65;100639.06;5037341;28;20427;-82
2022/03/03 01:37:34;;;;;;;12.18;5.07;;;;;;;1.89;61.34;100642.13;5036280;28;20056;-82
2022/03/03 01:39:59;;;;;;;9.50;4.65;;;;;;;1.92;60.90;100633.03;5037946;28;20132;-84
2022/03/03 01:42:25;;;;;;;13.80;5.80;;;;;;;1.87;61.04;100633.47;5038302;28;20579;-82
2022/03/03 01:44:51;;;;;;;15.95;5.47;;;;;;;2.08;59.76;100634.09;5038210;28;20041;-79
2022/03/03 01:47:25;;;;;;;14.10;5.90;;;;;;;1.93;60.23;100627.59;5038206;28;20090;-82
2022/03/03 01:49:53;;;;;;;14.43;4.78;;;;;;;1.94;59.85;100623.09;5037484;28;20030;-81
2022/03/03 01:52:19;;;;;;;13.70;5.45;;;;;;;1.94;60.13;100626.59;5037544;28;20037;-82
2022/03/03 01:54:45;;;;;;;16.80;5.43;;;;;;;1.87;60.84;100617.53;5037353;28;20034;-81
2022/03/03 01:57:11;;;;;;;14.13;5.53;;;;;;;1.90;60.74;100617.25;5037216;28;20151;-81
2022/03/03 01:59:37;;;;;;;12.35;5.15;;;;;;;2.14;60.13;100624.72;5037697;28;20073;-82
2022/03/03 02:02:06;;;;;;;10.52;4.38;;;;;;;2.05;60.15;100609.63;5037394;28;20457;-84
2022/03/03 02:04:32;;;;;;;12.27;4.88;;;;;;;2.01;60.24;100614.41;5035303;28;20036;-82
2022/03/03 02:06:58;;;;;;;12.70;5.25;;;;;;;2.08;59.98;100609.34;5036965;28;20060;-83
2022/03/03 02:09:24;;;;;;;12.98;5.18;;;;;;;2.05;60.33;100606.97;5036604;28;20061;-83
2022/03/03 02:11:53;;;;;;;13.63;5.82;;;;;;;2.12;60.24;100618.72;5036855;28;20052;-81
2022/03/03 02:14:18;;;;;;;12.95;5.15;;;;;;;2.16;60.31;100611.25;5035225;28;20041;-82
2022/03/03 02:16:44;;;;;;;14.33;5.30;;;;;;;1.87;60.76;100614.88;5036634;28;20037;-81
2022/03/03 02:19:17;;;;;;;11.30;5.32;;;;;;;1.71;61.02;100612.81;5035261;28;20264;-81
2022/03/03 02:21:51;;;;;;;14.30;5.60;;;;;;;1.68;61.62;100607.78;5036701;28;20037;-82
2022/03/03 02:24:18;;;;;;;14.25;5.90;;;;;;;1.58;61.73;100606.97;5036691;28;20036;-82
2022/03/03 02:26:45;;;;;;;12.57;5.28;;;;;;;1.68;62.17;100613.09;5036587;28;20029;-84
2022/03/03 02:29:10;;;;;;;13.55;5.15;;;;;;;1.81;61.13;100611.94;5036186;28;20063;-84
2022/03/03 02:31:36;;;;;;;14.10;5.60;;;;;;;1.65;60.91;100597.44;5036469;28;20399;-81
2022/03/03 02:34:01;;;;;;;13.30;5.00;;;;;;;1.66;61.62;100599.13;5036371;28;20034;-80
2022/03/03 02:36:28;;;;;;;13.80;5.75;;;;;;;1.64;61.62;100593.09;5036118;28;20415;-82
2022/03/03 02:38:57;;;;;;;16.55;5.38;;;;;;;1.50;62.90;100587.41;5035954;28;20037;-80
2022/03/03 02:41:23;;;;;;;12.55;6.10;;;;;;;1.39;63.06;100591.91;5036160;28;20037;-81
2022/03/03 02:43:49;;;;;;;14.38;5.75;;;;;;;1.50;62.57;100582.94;5034823;28;20102;-80
2022/03/03 02:46:14;;;;;;;14.73;5.93;;;;;;;1.34;63.15;100588.00;5034902;28;20462;-81
2022/03/03 02:48:40;;;;;;;10.52;5.03;;;;;;;1.21;63.78;100584.81;5035307;28;20037;-81
2022/03/03 02:51:07;;;;;;;15.73;6.40;;;;;;;1.29;64.26;100585.75;5036614;28;20520;-79
2022/03/03 02:53:32;;;;;;;11.55;5.25;;;;;;;1.14;64.97;100578.38;5034823;28;20033;-81
2022/03/03 02:55:58;;;;;;;15.35;6.20;;;;;;;1.00;65.56;100579.63;5034780;28;20037;-83
2022/03/03 02:58:23;;;;;;;12.53;4.77;;;;;;;0.91;66.04;100586.59;5036383;28;20048;-81
2022/03/03 03:00:49;;;;;;;14.48;6.22;;;;;;;0.86;66.81;100585.34;5036147;28;20837;-80
2022/03/03 03:03:15;;;;;;;12.23;5.57;;;;;;;1.02;65.72;100578.53;5035952;28;20029;-80
2022/03/03 03:05:41;;;;;;;12.93;5.50;;;;;;;0.93;65.47;100571.38;5035288;28;20030;-81
2022/03/03 03:08:07;;;;;;;9.80;4.68;;;;;;;1.03;64.70;100569.59;5035625;28;20026;-80
2022/03/03 03:10:32;;;;;;;11.55;5.60;;;;;;;1.00;65.56;100571.69;5035314;28;20029;-82
2022/03/03 03:12:58;;;;;;;9.90;4.63;;;;;;;1.12;64.56;100567.88;5035784;28;20026;-82
2022/03/03 03:15:24;;;;;;;11.63;4.97;;;;;;;1.11;63.78;100563.56;5035531;28;20068;-82
2022/03/03 03:17:50;;;;;;;10.48;4.40;;;;;;;1.27;62.72;100560.31;5034676;28;20264;-82
2022/03/03 03:20:15;;;;;;;10.52;4.30;;;;;;;1.35;61.94;100565.78;5034492;28;20098;-81
2022/03/03 03:22:41;;;;;;;15.57;6.32;;;;;;;1.39;62.04;100556.56;5035470;28;20028;-81
2022/03/03 03:25:09;;;;;;;12.27;5.53;;;;;;;1.37;62.25;100558.50;5035283;28;20033;-81
2022/03/03 03:27:39;;;;;;;14.35;5.43;;;;;;;1.35;62.69;100555.16;5035912;28;20448;-81
2022/03/03 03:30:06;;;;;;;13.63;4.90;;;;;;;1.41;62.56;100559.91;5035291;28;20059;-84
2022/03/03 03:32:32;;;;;;;11.05;4.43;;;;;;;1.28;62.72;100562.84;5035249;28;20431;-83
2022/03/03 03:34:57;;;;;;;11.07;4.80;;;;;;;1.19;63.49;100555.75;5034266;28;20041;-80
2022/03/03 03:37:23;;;;;;;14.07;5.33;;;;;;;1.36;62.75;100546.22;5035202;28;20396;-81
2022/03/03 03:39:48;;;;;;;12.15;5.45;;;;;;;1.23;63.73;100562.44;5034595;28;20272;-81
2022/03/03 03:42:14;;;;;;;15.77;5.67;;;;;;;1.18;63.49;100555.88;5034907;28;20445;-81
2022/03/03 03:44:39;;;;;;;14.77;5.43;;;;;;;1.03;64.55;100551.00;5035041;28;20268;-82
2022/03/03 03:47:06;;;;;;;13.37;4.83;;;;;;;1.03;65.67;100551.00;5035413;28;20057;-83
2022/03/03 03:49:31;;;;;;;13.57;4.80;;;;;;;0.96;65.36;100551.69;5035720;28;20065;-82
2022/03/03 03:51:59;;;;;;;12.43;5.43;;;;;;;0.90;65.63;100546.94;5035822;28;20043;-84
2022/03/03 03:54:24;;;;;;;11.90;5.07;;;;;;;0.75;67.25;100548.34;5037530;28;20084;-84
2022/03/03 03:56:50;;;;;;;13.50;5.77;;;;;;;0.67;67.34;100539.28;5041046;28;20411;-82
2022/03/03 03:59:15;;;;;;;14.48;5.43;;;;;;;0.52;68.04;100543.31;5044750;28;20032;-81
2022/03/03 04:01:41;;;;;;;14.73;5.10;;;;;;;0.68;67.22;100532.16;5044979;28;20034;-81
2022/03/03 04:04:06;;;;;;;15.85;5.05;;;;;;;0.48;67.66;100541.91;5047155;28;20492;-81
2022/03/03 04:06:32;;;;;;;12.63;4.97;;;;;;;0.59;66.74;100535.63;5054350;28;20093;-80
2022/03/03 04:08:58;;;;;;;;;;;;;;;0.49;67.33;100535.63;5052448;28;20029;-81
2022/03/03 04:11:23;;;;;;;11.18;4.95;;;;;;;0.37;67.91;100530.56;5048367;28;19983;-82
2022/03/03 04:13:49;;;;;;;10.48;4.18;;;;;;;0.37;67.25;100533.22;5050828;28;20084;-81
2022/03/03 04:16:15;;;;;;;11.30;5.63;;;;;;;0.34;67.87;100524.59;5051866;28;20129;-79
2022/03/03 04:18:40;;;;;;;10.35;4.53;;;;;;;0.28;68.17;100527.78;5053081;28;20033;-80
2022/03/03 04:21:06;;;;;;;15.45;5.25;;;;;;;0.12;69.11;100530.13;5048609;28;20038;-80
2022/03/03 04:23:31;;;;;;;11.65;4.35;;;;;;;0.18;68.85;100523.44;5045748;28;20109;-80
2022/03/03 04:25:57;;;;;;;12.23;5.00;;;;;;;0.12;69.16;100516.03;5045687;28;20116;-79
2022/03/03 04:28:22;;;;;;;9.77;5.03;;;;;;;0.06;69.61;100521.84;5044502;28;20025;-81
2022/03/03 04:30:48;;;;;;;11.73;5.27;;;;;;;0.07;69.76;100516.44;5045616;28;20267;-79
2022/03/03 04:33:14;;;;;;;11.70;4.93;;;;;;;0.10;69.38;100523.28;5047808;28;20310;-81
2022/03/03 04:35:40;;;;;;;13.05;5.25;;;;;;;0.00;70.13;100513.47;5050325;28;20436;-82
2022/03/03 04:38:05;;;;;;;13.27;5.72;;;;;;;0.01;70.70;100511.66;5050220;28;20025;-81
2022/03/03 04:40:30;;;;;;;12.90;5.45;;;;;;;-0.04;70.79;100508.59;5050829;28;20068;-81
2022/03/03 04:42:56;;;;;;;10.07;4.05;;;;;;;0.19;69.21;100502.09;5049180;28;20443;-81
2022/03/03 04:45:21;;;;;;;13.87;5.17;;;;;;;0.17;69.77;100506.72;5042731;28;20052;-81
2022/03/03 04:47:48;;;;;;;11.90;6.07;;;;;;;0.20;69.71;100503.75;5042045;28;20284;-84
2022/03/03 04:50:13;;;;;;;13.30;4.88;;;;;;;0.12;70.21;100511.56;5041915;28;20484;-82
2022/03/03 04:52:38;;;;;;;11.40;5.23;;;;;;;0.10;69.99;100502.06;5041469;28;20032;-83
2022/03/03 04:55:05;;;;;;;9.53;4.30;;;;;;;0.36;68.21;100503.22;5041703;28;20064;-82
2022/03/03 04:57:31;;;;;;;11.23;4.28;;;;;;;0.34;68.04;100503.38;5041180;28;20268;-83
2022/03/03 04:59:56;;;;;;;10.15;4.30;;;;;;;0.44;66.92;100506.03;5041422;28;20056;-82
2022/03/03 05:02:22;;;;;;;12.90;4.10;;;;;;;0.65;65.62;100496.16;5040810;28;20037;-83
2022/03/03 05:04:47;;;;;;;10.80;4.55;;;;;;;0.72;65.31;100487.66;5039092;28;20560;-80
2022/03/03 05:07:12;;;;;;;13.33;5.50;;;;;;;0.57;65.40;100492.50;5040601;28;20116;-86
2022/03/03 05:09:38;;;;;;;11.37;5.10;;;;;;;0.55;66.05;100494.44;5036613;28;20053;-82
2022/03/03 05:12:03;;;;;;;11.70;4.73;;;;;;;0.59;65.86;100490.56;5037847;28;20530;-82
2022/03/03 05:14:29;;;;;;;12.52;4.35;;;;;;;0.44;66.15;100491.94;5037653;28;20290;-83
2022/03/03 05:16:54;;;;;;;10.50;4.00;;;;;;;0.54;66.42;100488.31;5038121;28;20461;-81
2022/03/03 05:19:19;;;;;;;11.53;4.57;;;;;;;0.42;67.03;100489.44;5037914;28;20417;-82
2022/03/03 05:21:45;;;;;;;13.43;5.13;;;;;;;0.50;65.99;100491.41;5038377;28;20029;-84
2022/03/03 05:24:10;;;;;;;13.10;5.00;;;;;;;0.73;64.26;100495.44;5037438;28;20627;-82
2022/03/03 05:26:36;;;;;;;9.90;4.20;;;;;;;0.85;64.27;100488.19;5038327;28;20057;-85
2022/03/03 05:29:01;;;;;;;18.02;5.15;;;;;;;0.78;63.76;100490.56;5038751;28;20377;-84
2022/03/03 05:31:26;;;;;;;14.07;5.65;;;;;;;0.91;63.55;100495.56;5038584;28;20041;-81
2022/03/03 05:33:52;;;;;;;13.03;5.30;;;;;;;0.85;63.61;100496.16;5038151;28;20022;-83
2022/03/03 05:36:19;;;;;;;13.45;5.72;;;;;;;0.67;64.30;100491.56;5038360;28;20029;-82
2022/03/03 05:38:44;;;;;;;11.95;4.63;;;;;;;0.68;64.30;100495.03;5038726;28;20037;-84
2022/03/03 05:41:11;;;;;;;10.93;3.90;;;;;;;0.76;64.23;100486.38;5037557;28;20030;-78
2022/03/03 05:43:37;;;;;;;13.85;5.35;;;;;;;0.61;64.67;100491.25;5038263;28;20095;-83
2022/03/03 05:46:03;;;;;;;10.35;5.13;;;;;;;0.41;65.63;100492.22;5037715;28;20026;-82
2022/03/03 05:48:29;;;;;;;10.43;4.80;;;;;;;0.44;65.35;100491.94;5037726;28;20037;-86
2022/03/03 05:50:56;;;;;;;12.40;5.05;;;;;;;0.32;66.11;100489.44;5036511;28;20022;-85
2022/03/03 05:53:22;;;;;;;;;;;;;;;0.62;64.74;100490.28;5038567;28;20048;-85
2022/03/03 05:55:54;;;;;;;9.82;4.60;;;;;;;0.60;64.07;100490.41;5037786;28;19976;-85
2022/03/03 05:58:21;;;;;;;12.60;4.25;;;;;;;0.47;64.51;100483.72;5035687;28;20033;-87
2022/03/03 06:00:49;;;;;;;12.55;4.55;;;;;;;0.65;63.95;100496.16;5036735;28;20048;-84
2022/03/03 06:03:17;;;;;;;10.65;4.45;;;;;;;0.57;64.09;100497.81;5037792;28;20025;-85
2022/03/03 06:05:48;;;;;;;12.93;4.60;;;;;;;0.67;63.70;100496.00;5035398;28;20025;-84
2022/03/03 06:08:23;;;;;;;10.35;4.65;;;;;;;0.65;63.28;100496.16;5037416;28;20052;-84
2022/03/03 06:10:52;;;;;;;13.63;4.13;;;;;;;0.81;62.43;100508.00;5036930;28;20033;-83
2022/03/03 06:13:28;;;;;;;13.02;4.95;;;;;;;0.78;62.77;100510.94;5037307;28;20048;-83
2022/03/03 06:15:54;;;;;;;12.55;4.60;;;;;;;0.93;62.81;100502.41;5038032;28;20033;-85
2022/03/03 06:18:24;;;;;;;10.65;4.72;;;;;;;0.90;62.49;100497.38;5037904;28;20072;-83
2022/03/03 06:20:50;;;;;;;12.20;5.00;;;;;;;0.76;62.71;100494.31;5035284;28;20044;-84
2022/03/03 06:23:16;;;;;;;13.07;4.05;;;;;;;0.58;63.69;100487.06;5036673;28;20364;-81
2022/03/03 06:25:43;;;;;;;11.88;4.40;;;;;;;0.63;64.24;100498.09;5036307;28;20033;-81
2022/03/03 06:28:08;;;;;;;11.80;4.55;;;;;;;0.65;63.14;100495.31;5036383;28;20435;-80
2022/03/03 06:30:34;;;;;;;11.00;4.72;;;;;;;0.85;62.58;100501.44;5036868;28;20033;-78
2022/03/03 06:32:59;;;;;;;12.80;4.20;;;;;;;0.86;62.82;100501.31;5037116;28;20038;-81
2022/03/03 06:35:25;;;;;;;11.93;5.33;;;;;;;0.86;62.04;100498.66;5037717;28;20380;-85
2022/03/03 06:37:50;;;;;;;10.50;4.57;;;;;;;0.83;62.34;100501.59;5037216;28;20021;-80
2022/03/03 06:40:16;;;;;;;9.57;4.17;;;;;;;1.06;62.09;100499.47;5037136;28;20152;-81
2022/03/03 06:42:42;;;;;;;10.07;4.47;;;;;;;1.10;61.99;100502.66;5036984;28;20082;-80
2022/03/03 06:45:08;;;;;;;13.40;5.20;;;;;;;1.19;61.90;100497.34;5035706;28;20033;-80
2022/03/03 06:47:34;;;;;;;11.93;4.80;;;;;;;1.31;60.83;100490.88;5036761;28;20092;-80
2022/03/03 06:49:59;;;;;;;11.35;4.50;;;;;;;1.08;61.80;100491.34;5039536;28;20036;-81
2022/03/03 06:52:26;;;;;;;11.48;4.93;;;;;;;1.29;61.66;100499.97;5035283;28;20045;-81
2022/03/03 06:54:53;;;;;;;9.27;4.10;;;;;;;1.17;62.34;100498.47;5037344;28;20029;-82
2022/03/03 06:57:20;;;;;;;;;;;;;;;0.99;63.08;100495.72;5037151;28;20045;-82
2022/03/03 06:59:46;;;;;;;8.55;3.75;;;;;;;1.07;63.16;100497.66;5036062;28;19909;-83
2022/03/03 07:02:11;;;;;;;12.52;4.57;;;;;;;0.91;62.81;100492.91;5036587;28;20049;-82
2022/03/03 07:04:39;;;;;;;12.67;4.43;;;;;;;0.93;63.33;100498.91;5037709;28;20045;-82
2022/03/03 07:07:04;;;;;;;15.77;4.47;;;;;;;1.01;63.52;100489.28;5036981;28;20616;-82
2022/03/03 07:09:31;;;;;;;14.45;5.85;;;;;;;1.11;63.39;100494.56;5036946;28;20036;-83
2022/03/03 07:11:59;;;;;;;12.57;3.65;;;;;;;1.08;62.84;100507.28;5038629;28;20033;-83
2022/03/03 07:14:25;;;;;;;11.27;4.57;;;;;;;1.11;63.21;100502.53;5036996;28;20479;-83
2022/03/03 07:17:05;;;;;;;23.20;6.90;;;;;;;1.34;62.14;100500.38;5038515;28;20029;-83
2022/03/03 07:20:00;;;;;;;15.23;6.25;;;;;;;1.54;60.88;100498.53;5038100;28;20038;-83
2022/03/03 07:22:40;;;;;;;13.07;5.18;;;;;;;1.64;60.44;100508.09;5038260;28;20108;-83
2022/03/03 07:25:07;;;;;;;11.52;4.55;;;;;;;1.89;59.75;100517.25;5038688;28;20037;-81
2022/03/03 07:27:33;;;;;;;14.70;5.05;;;;;;;1.91;59.71;100517.94;5038882;28;20075;-83
2022/03/03 07:30:06;;;;;;;;;;;;;;;2.05;58.10;100516.59;5040142;28;20029;-82
2022/03/03 07:32:34;;;;;;;10.82;3.92;;;;;;;2.09;57.94;100521.50;5038290;28;19967;-83
2022/03/03 07:35:05;;;;;;;11.32;4.82;;;;;;;2.39;57.08;100515.00;5040602;28;20033;-83
2022/03/03 07:37:36;;;;;;;12.88;4.88;;;;;;;2.35;56.82;100516.28;5037286;28;20026;-83
2022/03/03 07:40:11;;;;;;;8.98;4.88;;;;;;;2.34;57.10;100519.94;5036996;28;20032;-83
2022/03/03 07:42:37;;;;;;;11.13;4.78;;;;;;;2.54;56.03;100520.63;5038825;28;20033;-83
2022/03/03 07:45:04;;;;;;;8.38;3.78;;;;;;;2.63;55.54;100518.91;5037611;28;20057;-82
2022/03/03 07:47:31;;;;;;;9.75;3.90;;;;;;;2.46;55.60;100525.91;5039697;28;20033;-82
2022/03/03 07:49:57;;;;;;;10.10;4.00;;;;;;;2.64;55.22;100520.59;5038235;28;20040;-83
2022/03/03 07:52:24;;;;;;;11.20;4.18;;;;;;;2.73;55.20;100519.66;5039973;28;20072;-83
2022/03/03 07:54:50;;;;;;;8.18;4.03;;;;;;;2.92;55.15;100518.66;5041351;28;20044;-83
2022/03/03 07:57:17;;;;;;;10.57;4.47;;;;;;;2.84;54.71;100527.44;5040796;28;20105;-83
2022/03/03 07:59:49;;;;;;;11.02;4.68;;;;;;;2.95;54.92;100521.88;5038773;28;20037;-83
2022/03/03 08:02:23;;;;;;;10.90;5.00;;;;;;;3.16;53.93;100526.03;5038217;28;20451;-83
2022/03/03 08:04:51;;;;;;;11.48;4.82;;;;;;;3.22;53.52;100523.59;5038014;28;20040;-82
2022/03/03 08:07:17;;;;;;;8.35;4.20;;;;;;;3.23;53.57;100525.25;5037721;28;20502;-83
2022/03/03 08:09:47;;;;;;;11.10;4.55;;;;;;;3.45;53.17;100519.41;5037880;28;20112;-83
2022/03/03 08:12:15;;;;;;;12.35;4.00;;;;;;;3.50;52.04;100526.94;5037881;28;20128;-83
2022/03/03 08:14:40;;;;;;;12.63;4.28;;;;;;;3.56;52.09;100518.34;5038534;28;20025;-83
2022/03/03 08:17:08;;;;;;;14.05;4.50;;;;;;;3.51;51.90;100519.78;5038833;28;20041;-85
2022/03/03 08:19:33;;;;;;;9.63;4.07;;;;;;;3.75;50.76;100530.59;5036427;28;20042;-85
2022/03/03 08:21:59;;;;;;;12.20;4.38;;;;;;;3.82;50.42;100527.13;5036931;28;20034;-79
2022/03/03 08:24:26;;;;;;;10.70;4.65;;;;;;;3.71;50.56;100532.72;5037862;28;20044;-82
2022/03/03 08:26:54;;;;;;;10.85;4.32;;;;;;;4.00;49.88;100526.19;5035103;28;20049;-79
2022/03/03 08:29:19;;;;;;;16.15;4.50;;;;;;;4.06;49.01;100526.41;5037368;28;20579;-79
2022/03/03 08:31:56;;;;;;;10.07;3.93;;;;;;;4.17;48.99;100538.59;5037436;28;20034;-80
2022/03/03 08:34:31;;;;;;;8.75;3.55;;;;;;;4.27;49.50;100527.81;5037840;28;20041;-80
2022/03/03 08:37:00;;;;;;;9.02;3.80;;;;;;;4.44;47.36;100522.38;5036935;28;20105;-80
2022/03/03 08:39:28;;;;;;;9.68;4.07;;;;;;;4.52;47.38;100525.03;5020502;28;20034;-80
2022/03/03 08:41:56;;;;;;;10.15;3.70;;;;;;;4.61;47.38;100519.75;5038589;28;20380;-79
2022/03/03 08:44:27;;;;;;;21.95;6.10;;;;;;;4.62;47.12;100530.25;5043052;28;20033;-81
2022/03/03 08:46:57;;;;;;;21.27;7.35;;;;;;;4.81;46.77;100529.13;5040763;28;20048;-82
2022/03/03 08:49:30;;;;;;;11.45;4.70;;;;;;;4.96;46.78;100514.09;5041558;28;20029;-79
2022/03/03 08:51:56;;;;;;;11.05;4.15;;;;;;;4.98;46.83;100511.28;5041902;28;20075;-81
2022/03/03 08:54:21;;;;;;;;;;;;;;;5.13;46.67;100513.09;5042399;28;20034;-80
2022/03/03 08:56:47;;;;;;;11.75;4.07;;;;;;;5.36;45.72;100515.09;5040907;28;19916;-80
2022/03/03 08:59:13;;;;;;;12.25;4.65;;;;;;;5.38;46.34;100510.41;5039036;28;20048;-81
2022/03/03 09:01:38;;;;;;;8.60;3.97;;;;;;;5.52;45.38;100510.56;5041089;28;20124;-82
2022/03/03 09:04:04;;;;;;;11.93;4.50;;;;;;;5.69;44.28;100503.34;5040881;28;20136;-79
2022/03/03 09:06:35;;;;;;;9.90;3.60;;;;;;;5.60;44.05;100501.69;5039120;28;20039;-79
2022/03/03 09:09:01;;;;;;;8.48;4.10;;;;;;;5.63;43.68;100503.19;5041867;28;20116;-79
2022/03/03 09:11:26;;;;;;;12.90;4.30;;;;;;;5.66;43.80;100500.16;5042706;28;20060;-80
2022/03/03 09:13:52;;;;;;;9.70;4.00;;;;;;;5.99;43.61;100501.75;5041228;28;20132;-81
2022/03/03 09:16:18;;;;;;;8.80;3.77;;;;;;;6.15;43.06;100506.19;5039837;28;20321;-79
2022/03/03 09:18:47;;;;;;;;;;;;;;;6.11;42.63;100500.34;5040265;28;20268;-82
2022/03/03 09:21:14;;;;;;;8.88;4.25;;;;;;;6.31;42.46;100500.75;5040035;28;19908;-81
2022/03/03 09:23:40;;;;;;;10.60;4.07;;;;;;;6.38;42.59;100496.38;5040377;28;20046;-81
2022/03/03 09:26:05;;;;;;;11.18;4.03;;;;;;;6.35;43.71;100499.41;5040653;28;20030;-80
2022/03/03 09:28:31;;;;;;;10.20;4.00;;;;;;;6.59;42.57;100496.59;5040109;28;20042;-80
2022/03/03 09:30:56;;;;;;;9.30;4.10;;;;;;;6.70;41.69;100498.03;5039704;28;20479;-81
2022/03/03 09:33:23;;;;;;;11.23;4.93;;;;;;;6.74;40.88;100496.66;5041006;28;20059;-80
2022/03/03 09:35:49;;;;;;;11.70;3.72;;;;;;;6.89;41.04;100488.69;5040154;28;20064;-81
2022/03/03 09:38:14;;;;;;;;;;;;;;;6.92;40.69;100496.38;5039991;28;20025;-79
2022/03/03 09:40:41;;;;;;;10.23;3.70;;;;;;;7.00;40.15;100496.28;5039615;28;19909;-79
2022/03/03 09:43:07;;;;;;;;;;;;;;;6.98;40.51;100495.66;5039470;28;20460;-81
2022/03/03 09:45:34;;;;;;;10.15;3.63;;;;;;;7.23;39.07;100496.25;5038043;28;19976;-79
2022/03/03 09:48:03;;;;;;;10.18;3.90;;;;;;;7.22;39.28;100494.59;5038597;28;20040;-79
2022/03/03 09:50:29;;;;;;;8.27;3.80;;;;;;;7.35;39.15;100488.59;5039872;28;20029;-80
2022/03/03 09:52:55;;;;;;;9.23;3.88;;;;;;;7.49;38.87;100491.34;5040643;28;20029;-80
2022/03/03 09:55:21;;;;;;;11.05;4.25;;;;;;;7.64;38.21;100488.66;5039579;28;20451;-80
2022/03/03 09:57:47;;;;;;;;;;;;;;;7.45;38.77;100484.66;5040152;28;20097;-80
2022/03/03 10:00:14;;;;;;;8.88;4.05;;;;;;;7.77;37.16;100485.31;5041471;28;20398;-79
2022/03/03 10:02:57;;;;;;;8.77;3.28;;;;;;;7.99;37.14;100484.41;5039405;28;20033;-79
2022/03/03 10:05:38;;;;;;;9.10;3.13;;;;;;;7.98;36.67;100480.03;5038805;28;20029;-81
2022/03/03 10:08:09;;;;;;;11.77;4.35;;;;;;;8.25;35.62;100465.09;5038611;28;20029;-81
2022/03/03 10:10:37;;;;;;;9.57;3.40;;;;;;;8.33;36.20;100473.91;5040128;28;20104;-80
2022/03/03 10:13:03;;;;;;;9.98;3.70;;;;;;;8.34;36.47;100469.38;5042665;28;20095;-80
2022/03/03 10:15:31;;;;;;;7.95;3.85;;;;;;;8.41;35.47;100464.91;5042570;28;20111;-80
2022/03/03 10:17:58;;;;;;;10.93;4.10;;;;;;;8.52;36.01;100466.25;5042804;28;20033;-82
2022/03/03 10:20:24;;;;;;;8.55;3.50;;;;;;;8.47;36.71;100461.44;5043966;28;20041;-82
2022/03/03 10:22:58;;;;;;;12.95;4.13;;;;;;;8.65;36.78;100467.22;5041688;28;20179;-82
2022/03/03 10:25:28;;;;;;;8.70;4.15;;;;;;;8.53;36.84;100468.75;5043061;28;20167;-83
2022/03/03 10:27:53;;;;;;;14.88;4.22;;;;;;;8.63;36.65;100473.81;5039915;28;20041;-81
2022/03/03 10:30:19;;;;;;;11.53;4.30;;;;;;;8.66;37.00;100466.19;5041567;28;20025;-82
2022/03/03 10:32:44;;;;;;;10.43;4.65;;;;;;;8.89;37.51;100478.63;5039627;28;20124;-80
2022/03/03 10:35:18;;;;;;;13.03;5.23;;;;;;;8.93;38.46;100469.16;5040682;28;20095;-82
2022/03/03 10:37:46;;;;;;;10.18;4.88;;;;;;;9.09;37.92;100462.66;5039923;28;20044;-82
2022/03/03 10:40:14;;;;;;;10.63;4.55;;;;;;;9.07;37.00;100462.84;5038670;28;20053;-81
2022/03/03 10:42:48;;;;;;;10.00;4.78;;;;;;;9.19;36.19;100472.06;5021534;28;20064;-81
2022/03/03 10:45:17;;;;;;;8.65;4.03;;;;;;;9.31;36.48;100472.38;5037502;28;20029;-80
2022/03/03 10:47:45;;;;;;;10.07;4.55;;;;;;;9.45;36.13;100473.28;5038530;28;20036;-81
2022/03/03 10:50:10;;;;;;;9.88;4.45;;;;;;;9.62;33.76;100464.72;5036627;28;20034;-80
2022/03/03 10:52:40;;;;;;;11.63;4.50;;;;;;;9.33;33.78;100465.75;5038566;28;20029;-82
2022/03/03 10:55:17;;;;;;;9.80;4.07;;;;;;;9.24;34.09;100466.09;5038942;28;20503;-81
2022/03/03 10:57:57;;;;;;;;;;;;;;;9.53;33.68;100459.66;5039337;28;20127;-81
2022/03/03 11:00:25;;;;;;;10.75;4.35;;;;;;;9.78;34.15;100466.25;5038730;28;19920;-80
2022/03/03 11:02:53;;;;;;;9.45;4.97;;;;;;;9.72;33.34;100464.34;5038798;28;20089;-79
2022/03/03 11:05:20;;;;;;;11.55;4.72;;;;;;;9.69;33.56;100459.34;5035709;28;20030;-82
2022/03/03 11:07:47;;;;;;;9.60;3.92;;;;;;;9.78;32.57;100463.56;5037154;28;20035;-81
2022/03/03 11:10:20;;;;;;;9.55;4.20;;;;;;;9.82;33.27;100466.69;5037728;28;20087;-79
2022/03/03 11:12:47;;;;;;;10.98;4.38;;;;;;;9.94;32.70;100462.41;5036822;28;20035;-80
2022/03/03 11:15:14;;;;;;;11.57;4.32;;;;;;;9.87;33.25;100464.22;5037927;28;20404;-81
2022/03/03 11:17:40;;;;;;;7.32;3.53;;;;;;;9.97;31.80;100470.91;5035213;28;20526;-80
2022/03/03 11:20:10;;;;;;;9.60;4.03;;;;;;;10.21;31.00;100456.09;5036455;28;20034;-80
2022/03/03 11:22:36;;;;;;;9.35;3.95;;;;;;;10.27;31.55;100460.69;5020058;28;20034;-79
2022/03/03 11:25:08;;;;;;;10.30;4.57;;;;;;;9.94;32.97;100459.69;5037193;28;20124;-81
2022/03/03 11:27:39;;;;;;;10.73;4.85;;;;;;;10.25;32.33;100448.47;5037597;28;20041;-81